Time;durP1;ratioP1;P1;durP2;ratioP2;P2;SDS_P1;SDS_P2;PMS_P1;PMS_P2;Temp;Humidity;BMP_temperature;BMP_pressure;BME280_temperature;BME280_humidity;BME280_pressure;Samples;Min_cycle;Max_cycle;Signal;HPM_P1;HPM_P2
2022/05/22 00:01:41;;;;;;;1.58;0.90;;;10.10;99.90;;;;;;5055374;28;20109;-83
2022/05/22 00:04:08;;;;;;;3.58;1.23;;;10.10;99.90;;;;;;5055126;28;20117;-83
2022/05/22 00:06:35;;;;;;;6.07;1.45;;;10.10;99.90;;;;;;5055347;28;20451;-83
2022/05/22 00:09:00;;;;;;;1.27;0.95;;;10.00;99.90;;;;;;5055437;28;20098;-83
2022/05/22 00:11:26;;;;;;;6.05;1.27;;;10.10;99.90;;;;;;5055392;28;20041;-84
2022/05/22 00:13:52;;;;;;;2.08;1.33;;;10.10;99.90;;;;;;5074617;28;20040;-83
2022/05/22 00:16:36;;;;;;;2.70;1.38;;;10.10;99.90;;;;;;5026109;28;20094;-83
2022/05/22 00:19:18;;;;;;;3.20;1.55;;;10.10;99.90;;;;;;5058927;28;20045;-83
2022/05/22 00:21:47;;;;;;;7.70;1.30;;;10.00;99.90;;;;;;5075787;28;20044;-83
2022/05/22 00:24:13;;;;;;;2.15;1.20;;;10.00;99.90;;;;;;5058967;28;20040;-83
2022/05/22 00:26:39;;;;;;;4.45;1.40;;;9.90;99.90;;;;;;5059292;28;20044;-83
2022/05/22 00:29:05;;;;;;;1.33;0.90;;;10.00;99.90;;;;;;5059205;28;20044;-83
2022/05/22 00:31:31;;;;;;;2.78;1.10;;;9.90;99.90;;;;;;5042809;28;20080;-82
2022/05/22 00:33:57;;;;;;;8.88;1.70;;;9.90;99.90;;;;;;5058870;28;20052;-83
2022/05/22 00:36:24;;;;;;;1.80;1.30;;;9.80;99.90;;;;;;5059351;28;20033;-83
2022/05/22 00:38:49;;;;;;;2.58;1.50;;;9.80;99.90;;;;;;5075677;28;20051;-83
2022/05/22 00:41:15;;;;;;;3.28;1.38;;;9.90;99.90;;;;;;5059104;28;20119;-84
2022/05/22 00:43:44;;;;;;;2.03;1.27;;;9.80;99.90;;;;;;5058916;28;20040;-83
2022/05/22 00:46:16;;;;;;;6.25;1.75;;;9.80;99.90;;;;;;5058734;28;20040;-83
2022/05/22 00:49:03;;;;;;;4.78;1.30;;;9.70;99.90;;;;;;5059027;28;20480;-83
2022/05/22 00:51:37;;;;;;;2.80;1.60;;;9.70;99.90;;;;;;5041414;28;20056;-83
2022/05/22 00:54:21;;;;;;;3.88;1.63;;;9.70;99.90;;;;;;5058922;28;20056;-83
2022/05/22 00:56:55;;;;;;;6.47;1.80;;;9.70;99.90;;;;;;5058556;28;20078;-83
2022/05/22 00:59:26;;;;;;;3.35;1.60;;;9.70;99.90;;;;;;5058816;28;20037;-83
2022/05/22 01:01:55;;;;;;;1.00;0.90;;;9.60;99.90;;;;;;5058857;28;20499;-83
2022/05/22 01:04:26;;;;;;;2.75;1.02;;;9.70;99.90;;;;;;5059027;28;20048;-83
2022/05/22 01:06:52;;;;;;;;;;;9.70;99.90;;;;;;5059360;28;20123;-83
2022/05/22 01:09:18;;;;;;;3.40;1.48;;;9.80;99.90;;;;;;5041741;28;20020;-83
2022/05/22 01:11:45;;;;;;;1.80;1.17;;;9.60;99.90;;;;;;5041400;28;20094;-83
2022/05/22 01:14:16;;;;;;;1.15;1.05;;;9.60;99.90;;;;;;5057844;28;20044;-83
2022/05/22 01:16:42;;;;;;;2.30;1.40;;;9.60;99.90;;;;;;5058095;28;20050;-83
2022/05/22 01:19:15;;;;;;;5.18;1.35;;;9.60;99.90;;;;;;5057869;28;20052;-82
2022/05/22 01:21:59;;;;;;;6.28;1.67;;;9.90;99.90;;;;;;5057944;28;20551;-84
2022/05/22 01:24:25;;;;;;;4.50;1.55;;;9.60;99.90;;;;;;5057422;28;20041;-83
2022/05/22 01:26:54;;;;;;;2.92;1.35;;;9.60;99.90;;;;;;5057527;28;20037;-83
2022/05/22 01:29:20;;;;;;;2.08;0.93;;;9.50;99.90;;;;;;5041120;28;20102;-83
2022/05/22 01:31:46;;;;;;;4.63;1.30;;;9.50;99.90;;;;;;5057595;28;20488;-83
2022/05/22 01:34:12;;;;;;;4.20;1.45;;;9.50;99.90;;;;;;5040588;28;20044;-83
2022/05/22 01:36:38;;;;;;;1.77;0.93;;;9.50;99.90;;;;;;5057511;28;20075;-82
2022/05/22 01:39:04;;;;;;;1.48;1.02;;;9.40;99.90;;;;;;5057227;28;20037;-83
2022/05/22 01:41:30;;;;;;;4.10;1.65;;;9.50;99.90;;;;;;5057563;28;20128;-83
2022/05/22 01:43:56;;;;;;;2.47;1.27;;;9.40;99.90;;;;;;5057419;28;20129;-84
2022/05/22 01:46:21;;;;;;;4.22;1.20;;;9.40;99.90;;;;;;5057366;28;20105;-83
2022/05/22 01:48:47;;;;;;;1.52;1.08;;;9.40;99.90;;;;;;5057095;28;20044;-83
2022/05/22 01:51:13;;;;;;;1.98;1.00;;;9.40;99.90;;;;;;5041026;28;20066;-83
2022/05/22 01:53:39;;;;;;;3.70;1.60;;;9.40;99.90;;;;;;5057281;28;20086;-83
2022/05/22 01:56:05;;;;;;;1.15;0.88;;;9.30;99.90;;;;;;5057123;28;20032;-83
2022/05/22 01:58:30;;;;;;;2.42;1.83;;;9.30;99.90;;;;;;5057044;28;20049;-83
2022/05/22 02:00:56;;;;;;;3.63;1.65;;;9.30;99.90;;;;;;5058373;28;20107;-82
2022/05/22 02:03:22;;;;;;;3.72;1.65;;;9.40;99.90;;;;;;5057077;28;20090;-83
2022/05/22 02:05:48;;;;;;;2.33;1.38;;;9.30;99.90;;;;;;5040433;28;20109;-84
2022/05/22 02:08:19;;;;;;;6.30;1.88;;;9.30;99.90;;;;;;5040364;28;20048;-80
2022/05/22 02:10:47;;;;;;;4.38;2.10;;;9.20;99.90;;;;;;5057015;28;20066;-83
2022/05/22 02:13:18;;;;;;;2.97;1.67;;;9.20;99.90;;;;;;5056947;28;20094;-83
2022/05/22 02:15:45;;;;;;;9.75;1.95;;;9.20;99.90;;;;;;5057159;28;20044;-83
2022/05/22 02:18:10;;;;;;;2.97;1.98;;;9.10;99.90;;;;;;5057189;28;20387;-83
2022/05/22 02:20:36;;;;;;;2.60;1.80;;;9.50;99.90;;;;;;5040121;28;20131;-83
2022/05/22 02:23:02;;;;;;;2.67;1.80;;;9.10;99.90;;;;;;5056667;28;20049;-83
2022/05/22 02:25:30;;;;;;;2.30;1.50;;;9.20;99.90;;;;;;5057070;28;20159;-83
2022/05/22 02:27:57;;;;;;;3.13;1.50;;;9.10;99.90;;;;;;5058414;28;20040;-82
2022/05/22 02:30:27;;;;;;;4.35;1.85;;;9.10;99.90;;;;;;5073848;28;20056;-83
2022/05/22 02:32:52;;;;;;;6.32;2.38;;;9.10;99.90;;;;;;5056419;28;20044;-83
2022/05/22 02:35:19;;;;;;;6.07;2.13;;;9.10;99.90;;;;;;5056103;28;20040;-83
2022/05/22 02:37:53;;;;;;;3.97;1.90;;;9.10;99.90;;;;;;5056542;28;20039;-83
2022/05/22 02:40:21;;;;;;;8.15;1.27;;;9.10;99.90;;;;;;5056662;28;20415;-83
2022/05/22 02:42:49;;;;;;;3.10;1.95;;;9.00;99.90;;;;;;5056405;28;20050;-83
2022/05/22 02:45:18;;;;;;;3.47;1.67;;;9.50;99.90;;;;;;5056202;28;20041;-83
2022/05/22 02:47:45;;;;;;;2.30;1.48;;;9.60;99.90;;;;;;5056233;28;20044;-83
2022/05/22 02:50:17;;;;;;;4.03;2.08;;;8.90;99.90;;;;;;5056235;28;20071;-84
2022/05/22 02:52:42;;;;;;;4.03;1.88;;;9.40;99.90;;;;;;5056196;28;20044;-83
2022/05/22 02:55:09;;;;;;;8.48;2.25;;;9.70;99.90;;;;;;5039526;28;20049;-82
2022/05/22 02:57:37;;;;;;;2.80;1.70;;;9.00;99.90;;;;;;5055968;28;20117;-82
2022/05/22 03:00:09;;;;;;;2.40;1.20;;;8.90;99.90;;;;;;5056159;28;20041;-82
2022/05/22 03:02:35;;;;;;;3.55;1.77;;;8.90;99.90;;;;;;5056192;28;20389;-82
2022/05/22 03:05:01;;;;;;;6.20;1.95;;;8.90;99.90;;;;;;5056211;28;20032;-82
2022/05/22 03:07:27;;;;;;;2.17;1.23;;;8.90;99.90;;;;;;5056314;28;20447;-82
2022/05/22 03:09:54;;;;;;;7.15;1.67;;;8.70;99.90;;;;;;5055803;28;20041;-82
2022/05/22 03:12:23;;;;;;;4.20;1.52;;;8.90;99.90;;;;;;5055750;28;20044;-82
2022/05/22 03:14:52;;;;;;;3.90;1.38;;;8.90;99.90;;;;;;5055634;28;20127;-82
2022/05/22 03:17:18;;;;;;;5.20;2.17;;;8.90;99.90;;;;;;5039024;28;20120;-82
2022/05/22 03:19:44;;;;;;;3.30;2.03;;;8.90;99.90;;;;;;5055259;28;20080;-82
2022/05/22 03:22:11;;;;;;;3.05;1.25;;;8.80;99.90;;;;;;5039277;28;20403;-81
2022/05/22 03:24:37;;;;;;;4.63;1.42;;;8.80;99.90;;;;;;5055381;28;20060;-81
2022/05/22 03:27:05;;;;;;;1.70;1.30;;;8.80;99.90;;;;;;5055527;28;20044;-81
2022/05/22 03:29:31;;;;;;;3.13;1.60;;;8.80;99.90;;;;;;5055565;28;20123;-82
2022/05/22 03:31:57;;;;;;;2.60;1.70;;;8.80;99.90;;;;;;5038892;28;20040;-82
2022/05/22 03:34:25;;;;;;;6.45;1.95;;;8.80;99.90;;;;;;5022324;28;20041;-82
2022/05/22 03:36:51;;;;;;;5.38;1.60;;;8.80;99.90;;;;;;5055515;28;20051;-82
2022/05/22 03:39:17;;;;;;;2.72;1.38;;;8.80;99.90;;;;;;5055235;28;20043;-82
2022/05/22 03:41:43;;;;;;;5.20;2.33;;;8.90;99.90;;;;;;5038718;28;20036;-82
2022/05/22 03:44:09;;;;;;;5.68;1.70;;;8.80;99.90;;;;;;5055196;28;20045;-82
2022/05/22 03:46:35;;;;;;;4.28;2.03;;;9.00;99.90;;;;;;5055192;28;20067;-82
2022/05/22 03:49:01;;;;;;;4.50;2.00;;;8.90;99.90;;;;;;5054543;28;20037;-82
2022/05/22 03:51:27;;;;;;;3.92;1.75;;;8.90;99.90;;;;;;5055727;28;20040;-82
2022/05/22 03:53:54;;;;;;;3.65;2.10;;;8.90;99.90;;;;;;5055445;28;20040;-81
2022/05/22 03:56:20;;;;;;;1.92;1.63;;;9.00;99.90;;;;;;5055297;28;20037;-82
2022/05/22 03:58:47;;;;;;;4.00;2.05;;;9.00;99.90;;;;;;5055160;28;20051;-82
2022/05/22 04:01:13;;;;;;;3.38;1.63;;;9.10;99.90;;;;;;5039172;28;20472;-82
2022/05/22 04:03:39;;;;;;;5.70;2.25;;;9.10;99.90;;;;;;5057365;28;20512;-81
2022/05/22 04:06:08;;;;;;;4.43;1.33;;;10.20;99.90;;;;;;5057643;28;20044;-82
2022/05/22 04:08:34;;;;;;;3.90;2.15;;;9.10;99.90;;;;;;5057590;28;20044;-83
2022/05/22 04:11:07;;;;;;;7.10;2.67;;;9.10;99.90;;;;;;5057983;28;20083;-82
2022/05/22 04:13:33;;;;;;;3.92;2.33;;;9.10;99.90;;;;;;5058362;28;20045;-84
2022/05/22 04:15:59;;;;;;;4.32;1.98;;;9.10;99.90;;;;;;5057503;28;20043;-82
2022/05/22 04:18:25;;;;;;;2.70;1.40;;;9.10;99.90;;;;;;5057139;28;20076;-83
2022/05/22 04:20:51;;;;;;;3.15;1.83;;;9.10;99.90;;;;;;5056458;28;20083;-82
2022/05/22 04:26:02;;;;;;;4.47;1.77;;;9.20;99.90;;;;;;5056716;28;20047;-82
2022/05/22 04:28:29;;;;;;;2.83;1.77;;;9.30;99.90;;;;;;5056137;28;20036;-82
2022/05/22 04:30:55;;;;;;;7.65;2.75;;;9.50;99.90;;;;;;5056435;28;20438;-82
2022/05/22 04:33:21;;;;;;;8.15;2.38;;;9.40;99.90;;;;;;5039299;28;20036;-82
2022/05/22 04:35:47;;;;;;;7.03;1.80;;;9.40;99.90;;;;;;5072418;28;20048;-84
2022/05/22 04:38:13;;;;;;;6.05;2.40;;;9.70;99.90;;;;;;5056089;28;20459;-83
2022/05/22 04:40:40;;;;;;;7.28;2.05;;;9.60;99.90;;;;;;5056377;28;20041;-83
2022/05/22 04:43:06;;;;;;;10.35;2.03;;;9.60;99.90;;;;;;5055999;28;20048;-84
2022/05/22 04:45:33;;;;;;;6.40;1.90;;;9.70;99.90;;;;;;5055940;28;20135;-82
2022/05/22 04:47:59;;;;;;;2.85;1.27;;;9.70;99.90;;;;;;5056956;28;20054;-83
2022/05/22 04:50:25;;;;;;;3.85;1.90;;;9.80;99.90;;;;;;5058059;28;20123;-83
2022/05/22 04:52:51;;;;;;;4.93;2.00;;;9.80;99.90;;;;;;5057896;28;20044;-83
2022/05/22 04:55:17;;;;;;;5.97;2.55;;;9.80;99.90;;;;;;5056713;28;20052;-83
2022/05/22 04:57:43;;;;;;;4.43;2.35;;;10.00;99.90;;;;;;5056658;28;20058;-82
2022/05/22 05:00:11;;;;;;;6.45;2.45;;;10.00;99.90;;;;;;5059963;28;20040;-82
2022/05/22 05:02:37;;;;;;;3.38;1.80;;;10.10;99.90;;;;;;5060308;28;20044;-82
2022/05/22 05:05:11;;;;;;;2.30;1.48;;;10.10;99.90;;;;;;5059449;28;20040;-81
2022/05/22 05:07:41;;;;;;;4.10;1.67;;;10.20;99.90;;;;;;5058885;28;20036;-83
2022/05/22 05:10:09;;;;;;;9.37;2.17;;;10.30;99.90;;;;;;5059078;28;20067;-82
2022/05/22 05:12:38;;;;;;;3.03;1.90;;;10.40;99.90;;;;;;5075671;28;20286;-82
2022/05/22 05:15:04;;;;;;;5.10;2.05;;;10.50;99.90;;;;;;5059149;28;20507;-82
2022/05/22 05:17:30;;;;;;;10.98;2.30;;;10.50;99.90;;;;;;5041563;28;20044;-83
2022/05/22 05:19:56;;;;;;;6.93;1.85;;;10.60;99.90;;;;;;5057802;28;20060;-82
2022/05/22 05:22:22;;;;;;;4.93;2.05;;;10.70;99.90;;;;;;5057950;28;20045;-82
2022/05/22 05:24:48;;;;;;;7.50;2.22;;;10.90;99.90;;;;;;5041226;28;20455;-82
2022/05/22 05:27:13;;;;;;;3.30;2.13;;;10.90;99.90;;;;;;5041515;28;20037;-82
2022/05/22 05:29:39;;;;;;;5.18;1.67;;;11.00;99.90;;;;;;5057703;28;20047;-82
2022/05/22 05:32:05;;;;;;;2.67;1.80;;;11.10;99.90;;;;;;5057629;28;20065;-82
2022/05/22 05:34:31;;;;;;;10.73;2.83;;;11.20;99.90;;;;;;5057435;28;20036;-83
2022/05/22 05:36:56;;;;;;;6.18;2.35;;;11.30;99.90;;;;;;5057202;28;20505;-82
2022/05/22 05:39:22;;;;;;;3.85;1.95;;;11.50;99.90;;;;;;5057217;28;20037;-82
2022/05/22 05:41:48;;;;;;;4.68;2.00;;;11.60;99.90;;;;;;5057590;28;20040;-83
2022/05/22 05:44:14;;;;;;;2.35;1.67;;;11.90;99.90;;;;;;5057393;28;20032;-83
2022/05/22 05:46:40;;;;;;;5.85;1.83;;;11.80;99.90;;;;;;5057483;28;20041;-82
2022/05/22 05:49:07;;;;;;;2.97;2.08;;;11.90;99.90;;;;;;5057297;28;20071;-83
2022/05/22 05:51:36;;;;;;;4.75;1.70;;;12.00;99.90;;;;;;5057010;28;20048;-84
2022/05/22 05:54:02;;;;;;;6.25;2.78;;;12.50;99.90;;;;;;5056989;28;20032;-83
2022/05/22 05:56:28;;;;;;;3.22;1.90;;;12.40;99.90;;;;;;5024024;28;20043;-83
2022/05/22 05:58:54;;;;;;;6.18;1.75;;;12.30;99.90;;;;;;5057198;28;20037;-81
2022/05/22 06:01:22;;;;;;;4.45;2.17;;;12.60;99.90;;;;;;5041432;28;20105;-80
2022/05/22 06:03:47;;;;;;;6.18;2.25;;;12.70;99.90;;;;;;5058698;28;20078;-82
2022/05/22 06:06:14;;;;;;;2.88;1.60;;;12.70;99.90;;;;;;5057678;28;20408;-85
2022/05/22 06:08:41;;;;;;;5.20;2.38;;;12.80;99.90;;;;;;5056988;28;20037;-84
2022/05/22 06:11:08;;;;;;;3.65;1.60;;;13.00;99.90;;;;;;5039885;28;20482;-83
2022/05/22 06:13:35;;;;;;;3.75;2.10;;;13.10;99.90;;;;;;5057044;28;20123;-83
2022/05/22 06:16:03;;;;;;;3.78;1.90;;;13.10;99.90;;;;;;5056723;28;20115;-84
2022/05/22 06:18:29;;;;;;;6.38;2.42;;;13.30;99.90;;;;;;5056667;28;20415;-85
2022/05/22 06:20:56;;;;;;;4.03;2.13;;;13.90;99.90;;;;;;5040116;28;20099;-82
2022/05/22 06:23:22;;;;;;;6.93;1.73;;;13.50;99.90;;;;;;5073099;28;20404;-82
2022/05/22 06:25:47;;;;;;;4.25;1.50;;;13.60;99.90;;;;;;5056333;28;20048;-84
2022/05/22 06:28:17;;;;;;;4.13;2.03;;;13.70;99.90;;;;;;5039671;28;20143;-83
2022/05/22 06:30:44;;;;;;;2.88;1.23;;;13.80;99.90;;;;;;5056558;28;20506;-85
2022/05/22 06:33:11;;;;;;;7.30;1.92;;;13.90;99.90;;;;;;5056164;28;20044;-84
2022/05/22 06:35:42;;;;;;;4.22;1.85;;;14.00;99.90;;;;;;5056072;28;20041;-84
2022/05/22 06:38:08;;;;;;;3.33;1.73;;;14.00;99.90;;;;;;5039338;28;20037;-81
2022/05/22 06:40:38;;;;;;;6.45;2.70;;;14.10;99.90;;;;;;5056254;28;20036;-81
2022/05/22 06:43:04;;;;;;;3.70;1.42;;;15.90;99.90;;;;;;5056083;28;20476;-82
2022/05/22 06:45:30;;;;;;;5.07;1.83;;;14.30;99.90;;;;;;5056235;28;20055;-81
2022/05/22 06:47:56;;;;;;;2.95;1.65;;;14.40;99.90;;;;;;5039249;28;20040;-82
2022/05/22 06:50:24;;;;;;;3.03;1.27;;;14.40;99.90;;;;;;5055910;28;20040;-81
2022/05/22 06:52:51;;;;;;;3.75;1.75;;;14.60;99.90;;;;;;5055735;28;20040;-82
2022/05/22 06:55:16;;;;;;;3.15;1.58;;;14.60;99.90;;;;;;5042167;28;20094;-81
2022/05/22 06:57:43;;;;;;;3.10;1.50;;;14.70;99.90;;;;;;5042907;28;20438;-87
2022/05/22 07:00:12;;;;;;;4.20;1.00;;;14.80;99.90;;;;;;5055836;28;20047;-76
2022/05/22 07:02:39;;;;;;;3.72;1.73;;;14.80;99.90;;;;;;5055755;28;20045;-84
2022/05/22 07:05:05;;;;;;;5.15;1.70;;;14.90;99.90;;;;;;5039396;28;20487;-82
2022/05/22 07:07:31;;;;;;;2.90;1.35;;;14.90;99.90;;;;;;5055491;28;20157;-81
2022/05/22 07:09:59;;;;;;;2.45;1.55;;;15.00;99.90;;;;;;5038901;28;20045;-82
2022/05/22 07:12:25;;;;;;;2.70;1.60;;;15.10;99.90;;;;;;5039203;28;20102;-79
2022/05/22 07:14:56;;;;;;;2.38;1.08;;;15.20;99.90;;;;;;5055213;28;20127;-80
2022/05/22 07:17:24;;;;;;;2.08;1.05;;;15.20;99.90;;;;;;5055416;28;20127;-82
2022/05/22 07:19:55;;;;;;;3.28;1.23;;;15.30;99.90;;;;;;5054871;28;20055;-80
2022/05/22 07:22:20;;;;;;;3.22;1.40;;;15.50;99.90;;;;;;5055197;28;20092;-80
2022/05/22 07:24:46;;;;;;;1.45;1.10;;;15.60;99.90;;;;;;5055115;28;20036;-80
2022/05/22 07:27:14;;;;;;;4.13;1.30;;;15.70;99.90;;;;;;5055016;28;20594;-80
2022/05/22 07:29:41;;;;;;;2.97;0.77;;;15.80;99.90;;;;;;5071675;28;20119;-80
2022/05/22 07:32:07;;;;;;;1.60;0.93;;;15.80;99.90;;;;;;5055240;28;20613;-81
2022/05/22 07:34:33;;;;;;;1.10;0.80;;;15.90;99.90;;;;;;5022121;28;20046;-81
2022/05/22 07:37:02;;;;;;;5.28;0.88;;;15.90;99.90;;;;;;5055202;28;20458;-81
2022/05/22 07:39:28;;;;;;;3.60;1.05;;;15.90;99.90;;;;;;5054871;28;20051;-81
2022/05/22 07:41:53;;;;;;;1.45;0.57;;;15.90;99.90;;;;;;5038330;28;20040;-81
2022/05/22 07:44:20;;;;;;;2.20;0.80;;;16.00;99.90;;;;;;5038545;28;20040;-80
2022/05/22 07:46:47;;;;;;;6.22;2.15;;;16.00;99.90;;;;;;5055185;28;20514;-82
2022/05/22 07:50:16;;;;;;;1.83;0.98;;;16.10;99.90;;;;;;5054841;28;20080;-81
2022/05/22 07:52:17;;;;;;;1.25;0.70;;;16.20;99.90;;;;;;5054783;28;20044;-82
2022/05/22 07:54:43;;;;;;;2.00;0.95;;;16.20;99.90;;;;;;5054765;28;20040;-81
2022/05/22 07:57:09;;;;;;;2.70;1.10;;;16.40;99.90;;;;;;5038132;28;20041;-82
2022/05/22 07:59:36;;;;;;;1.50;0.95;;;16.50;99.90;;;;;;5054654;28;20036;-82
2022/05/22 08:02:04;;;;;;;4.35;1.25;;;16.60;99.90;;;;;;5054772;28;20067;-81
2022/05/22 08:04:30;;;;;;;2.30;1.08;;;16.60;99.90;;;;;;5038268;28;20526;-82
2022/05/22 08:06:56;;;;;;;1.45;0.50;;;16.40;99.90;;;;;;5054933;28;20036;-84
2022/05/22 08:09:21;;;;;;;1.02;0.70;;;16.10;99.90;;;;;;5056486;28;20101;-82
2022/05/22 08:11:47;;;;;;;2.13;1.08;;;16.20;99.90;;;;;;5055436;28;20415;-85
2022/05/22 08:14:15;;;;;;;1.17;0.60;;;16.10;99.90;;;;;;5054771;28;20044;-77
2022/05/22 08:16:42;;;;;;;2.03;0.80;;;16.60;99.90;;;;;;5054483;28;20083;-77
2022/05/22 08:19:08;;;;;;;2.55;1.10;;;16.70;99.90;;;;;;5054639;28;20519;-77
2022/05/22 08:21:34;;;;;;;1.80;0.70;;;17.00;99.90;;;;;;5054378;28;20060;-79
2022/05/22 08:24:00;;;;;;;4.00;0.85;;;17.00;99.90;;;;;;5054481;28;20507;-79
2022/05/22 08:26:27;;;;;;;6.00;1.35;;;17.10;99.90;;;;;;5054689;28;20547;-80
2022/05/22 08:28:54;;;;;;;1.83;0.70;;;17.00;99.90;;;;;;5054908;28;20480;-81
2022/05/22 08:31:19;;;;;;;3.50;1.20;;;17.10;99.90;;;;;;5054478;28;20032;-82
2022/05/22 08:33:45;;;;;;;2.35;0.88;;;17.20;99.90;;;;;;5055138;28;20044;-84
2022/05/22 08:36:11;;;;;;;1.35;0.73;;;17.30;99.90;;;;;;5058218;28;20036;-75
2022/05/22 08:38:37;;;;;;;1.52;0.77;;;17.30;99.90;;;;;;5075084;28;20094;-74
2022/05/22 08:41:10;;;;;;;2.20;0.93;;;17.50;99.90;;;;;;5058335;28;20044;-74
2022/05/22 08:43:54;;;;;;;2.95;1.00;;;17.40;99.90;;;;;;5058120;28;20041;-75
2022/05/22 08:46:32;;;;;;;5.13;1.00;;;17.60;99.90;;;;;;5058010;28;20068;-79
2022/05/22 08:49:01;;;;;;;2.72;1.00;;;17.60;99.90;;;;;;5057945;28;20127;-80
2022/05/22 08:51:34;;;;;;;1.15;0.63;;;17.70;99.90;;;;;;5057998;28;20045;-80
2022/05/22 08:54:15;;;;;;;1.25;0.70;;;17.50;99.90;;;;;;5057918;28;20043;-73
2022/05/22 08:59:34;;;;;;;0.75;0.70;;;17.70;99.90;;;;;;5057770;28;20094;-72
2022/05/22 09:02:24;;;;;;;2.15;0.70;;;17.80;99.90;;;;;;5057963;28;20035;-78
2022/05/22 09:05:04;;;;;;;5.10;1.30;;;18.00;99.90;;;;;;5057898;28;20093;-80
2022/05/22 09:07:38;;;;;;;2.23;0.80;;;18.20;99.90;;;;;;5058097;28;20609;-80
2022/05/22 09:10:37;;;;;;;0.85;0.73;;;18.40;99.90;;;;;;5057800;28;20044;-80
2022/05/22 09:13:05;;;;;;;2.65;0.90;;;18.60;99.90;;;;;;5074514;28;20053;-73
2022/05/22 09:15:56;;;;;;;3.90;0.80;;;18.40;99.90;;;;;;5057553;28;20040;-72
2022/05/22 09:18:35;;;;;;;2.05;0.73;;;18.10;99.90;;;;;;5057810;28;20067;-73
2022/05/22 09:21:14;;;;;;;2.67;1.13;;;17.90;99.90;;;;;;5039247;28;20049;-73
2022/05/22 09:24:00;;;;;;;2.95;1.08;;;17.70;99.90;;;;;;5034509;28;20048;-73
2022/05/22 09:26:38;;;;;;;3.15;1.10;;;17.40;99.90;;;;;;5017741;28;20033;-72
2022/05/22 09:29:17;;;;;;;2.05;0.80;;;17.60;99.90;;;;;;5034131;28;20037;-72
2022/05/22 09:31:59;;;;;;;1.65;0.88;;;17.50;99.90;;;;;;5034104;28;20120;-72
2022/05/22 09:34:28;;;;;;;2.95;1.23;;;17.80;99.90;;;;;;5017478;28;20046;-73
2022/05/22 09:37:02;;;;;;;3.20;0.55;;;17.80;99.90;;;;;;5034003;28;20095;-73
2022/05/22 09:39:56;;;;;;;0.88;0.75;;;18.00;99.90;;;;;;5033952;28;20049;-72
2022/05/22 09:42:45;;;;;;;3.55;0.65;;;18.30;99.90;;;;;;5033906;28;20129;-73
2022/05/22 09:45:27;;;;;;;1.40;0.57;;;18.30;99.90;;;;;;5033076;28;20043;-73
2022/05/22 09:48:21;;;;;;;3.85;0.93;;;18.10;99.90;;;;;;5050715;28;20292;-72
2022/05/22 09:51:11;;;;;;;0.73;0.57;;;17.80;99.90;;;;;;5034070;28;20053;-73
2022/05/22 09:54:22;;;;;;;2.17;0.70;;;17.60;99.90;;;;;;5033764;28;20125;-72
2022/05/22 09:56:53;;;;;;;2.80;0.70;;;17.50;99.90;;;;;;5017240;28;20132;-72
2022/05/22 09:59:39;;;;;;;2.15;0.88;;;17.40;99.90;;;;;;5033599;28;20052;-72
2022/05/22 10:02:20;;;;;;;0.77;0.50;;;17.70;99.90;;;;;;5017419;28;20037;-72
2022/05/22 10:04:58;;;;;;;;;;;18.00;99.90;;;;;;5033805;28;20052;-72
2022/05/22 10:07:44;;;;;;;1.67;0.32;;;18.20;99.90;;;;;;5033360;28;19923;-72
2022/05/22 10:10:37;;;;;;;1.60;0.55;;;18.50;99.90;;;;;;5032840;28;20049;-72
2022/05/22 10:13:33;;;;;;;1.33;0.77;;;18.40;99.90;;;;;;5016768;28;20068;-73
2022/05/22 10:16:40;;;;;;;1.17;0.60;;;18.70;99.90;;;;;;5033175;28;20088;-72
2022/05/22 10:19:21;;;;;;;1.20;0.65;;;18.80;99.90;;;;;;5011170;28;20046;-72
2022/05/22 10:22:01;;;;;;;0.40;0.40;;;19.00;99.90;;;;;;5033076;28;20049;-73
2022/05/22 10:24:39;;;;;;;0.80;0.50;;;18.90;99.90;;;;;;5033028;28;20037;-72
2022/05/22 10:27:15;;;;;;;2.63;0.60;;;18.80;99.90;;;;;;5033242;28;20494;-72
2022/05/22 10:29:45;;;;;;;2.15;0.60;;;18.90;99.90;;;;;;5032872;28;20092;-72
2022/05/22 10:32:33;;;;;;;1.13;0.60;;;19.00;99.90;;;;;;5033105;28;20508;-72
2022/05/22 10:35:11;;;;;;;0.45;0.38;;;19.10;99.90;;;;;;5032639;28;20117;-72
2022/05/22 10:37:58;;;;;;;1.10;0.60;;;19.00;99.90;;;;;;5033057;28;20038;-72
2022/05/22 10:40:25;;;;;;;2.10;0.75;;;18.90;99.90;;;;;;5032638;28;20037;-72
2022/05/22 10:42:56;;;;;;;2.60;0.80;;;18.80;99.90;;;;;;5032997;28;20096;-72
2022/05/22 10:45:33;;;;;;;1.10;0.40;;;18.70;99.90;;;;;;5033023;28;20512;-72
2022/05/22 10:48:09;;;;;;;1.02;0.40;;;18.80;99.90;;;;;;5032883;28;20096;-72
2022/05/22 10:50:36;;;;;;;1.00;0.57;;;18.70;99.90;;;;;;5016166;28;20045;-73
2022/05/22 10:53:02;;;;;;;2.38;0.55;;;18.70;99.90;;;;;;5016155;28;20045;-72
2022/05/22 10:55:44;;;;;;;1.10;0.38;;;18.70;99.90;;;;;;5016165;28;20505;-72
2022/05/22 10:58:31;;;;;;;4.30;0.70;;;18.60;99.90;;;;;;5033086;28;20091;-71
2022/05/22 11:01:00;;;;;;;1.73;0.75;;;18.50;99.90;;;;;;5032372;28;20120;-73
2022/05/22 11:03:31;;;;;;;3.97;0.40;;;18.50;99.90;;;;;;5032348;28;20047;-72
2022/05/22 11:05:58;;;;;;;1.15;0.32;;;18.40;99.90;;;;;;5015952;28;20099;-72
2022/05/22 11:08:26;;;;;;;0.50;0.50;;;18.60;99.90;;;;;;5032303;28;20077;-72
2022/05/22 11:10:51;;;;;;;1.75;0.40;;;18.70;99.90;;;;;;5032501;28;20124;-72
2022/05/22 11:13:25;;;;;;;2.22;0.57;;;18.90;99.90;;;;;;5015820;28;20131;-72
2022/05/22 11:15:51;;;;;;;0.77;0.47;;;19.00;99.90;;;;;;5032172;28;20100;-72
2022/05/22 11:18:27;;;;;;;4.28;0.70;;;19.00;99.90;;;;;;5032114;28;20095;-72
2022/05/22 11:20:55;;;;;;;2.05;0.60;;;19.10;99.90;;;;;;5034056;28;20053;-72
2022/05/22 11:23:40;;;;;;;0.77;0.50;;;19.20;99.90;;;;;;5031970;28;20059;-75
2022/05/22 11:26:37;;;;;;;0.50;0.50;;;19.30;99.90;;;;;;5031967;28;20128;-75
2022/05/22 11:29:24;;;;;;;3.15;0.40;;;19.40;99.90;;;;;;5015753;28;20432;-75
2022/05/22 11:32:02;;;;;;;0.57;0.40;;;19.40;99.90;;;;;;5031959;28;20064;-75
2022/05/22 11:34:49;;;;;;;2.17;0.73;;;19.50;99.90;;;;;;5031816;28;20042;-75
2022/05/22 11:37:34;;;;;;;1.35;0.50;;;19.60;99.90;;;;;;5031862;28;20064;-75
2022/05/22 11:40:26;;;;;;;2.28;0.55;;;19.60;99.90;;;;;;5031741;28;20099;-74
2022/05/22 11:43:18;;;;;;;1.05;0.50;;;19.80;99.90;;;;;;5032029;28;20096;-74
2022/05/22 11:45:53;;;;;;;2.28;0.65;;;19.60;99.90;;;;;;5013391;28;20045;-73
2022/05/22 11:48:38;;;;;;;2.63;0.70;;;19.50;99.90;;;;;;5031680;28;20048;-73
2022/05/22 11:51:22;;;;;;;1.05;0.50;;;19.50;99.90;;;;;;5031928;28;20097;-73
2022/05/22 11:53:59;;;;;;;2.10;0.63;;;19.50;99.90;;;;;;5031626;28;20042;-72
2022/05/22 11:57:02;;;;;;;0.57;0.50;;;19.40;99.90;;;;;;5031559;28;20118;-73
2022/05/22 12:00:16;;;;;;;1.75;0.70;;;19.50;99.90;;;;;;5031568;28;20112;-73
2022/05/22 12:02:51;;;;;;;1.17;0.57;;;19.60;99.90;;;;;;5023397;28;20135;-73
2022/05/22 12:05:22;;;;;;;1.38;0.60;;;19.40;99.90;;;;;;5031463;28;20037;-73
2022/05/22 12:07:57;;;;;;;0.35;0.32;;;19.30;99.90;;;;;;5031396;28;20045;-73
2022/05/22 12:10:30;;;;;;;0.98;0.55;;;19.30;99.90;;;;;;5034934;28;20041;-73
2022/05/22 12:13:23;;;;;;;3.35;0.50;;;19.20;99.90;;;;;;5035597;28;20107;-73
2022/05/22 12:15:59;;;;;;;1.33;0.60;;;19.10;99.90;;;;;;5014702;28;20057;-73
2022/05/22 12:18:53;;;;;;;0.75;0.45;;;19.20;99.90;;;;;;5018978;28;20041;-73
2022/05/22 12:21:53;;;;;;;1.60;0.63;;;19.30;99.90;;;;;;5047028;28;20088;-73
2022/05/22 12:24:35;;;;;;;;;;;19.50;99.90;;;;;;5036024;28;20401;-73
2022/05/22 12:27:07;;;;;;;1.10;0.45;;;19.80;99.90;;;;;;5018750;28;20331;-73
2022/05/22 12:29:42;;;;;;;0.88;0.60;;;19.80;99.90;;;;;;5035242;28;20041;-73
2022/05/22 12:32:20;;;;;;;3.08;0.40;;;20.00;99.90;;;;;;5035212;28;20132;-74
2022/05/22 12:34:51;;;;;;;1.00;0.60;;;20.20;99.90;;;;;;5018759;28;20038;-73
2022/05/22 12:37:27;;;;;;;0.30;0.30;;;20.50;99.90;;;;;;5035080;28;20051;-73
2022/05/22 12:40:14;;;;;;;1.30;0.52;;;20.60;99.90;;;;;;5035020;28;20041;-74
2022/05/22 12:42:46;;;;;;;0.90;0.60;;;20.70;99.90;;;;;;5035292;28;20435;-73
2022/05/22 12:45:13;;;;;;;1.33;0.60;;;20.70;99.90;;;;;;5035084;28;20366;-74
2022/05/22 12:47:45;;;;;;;1.30;0.60;;;20.80;99.90;;;;;;5035148;28;20056;-74
2022/05/22 12:50:12;;;;;;;1.40;0.30;;;21.00;99.90;;;;;;5034811;28;20044;-74
2022/05/22 12:52:40;;;;;;;0.95;0.40;;;21.10;99.90;;;;;;5002161;28;20044;-76
2022/05/22 12:55:18;;;;;;;3.70;0.70;;;20.90;99.90;;;;;;5001968;28;20042;-73
2022/05/22 12:57:59;;;;;;;1.50;0.88;;;20.70;99.90;;;;;;5035035;28;20037;-83
2022/05/22 13:00:36;;;;;;;1.38;0.50;;;20.50;99.90;;;;;;5018433;28;20504;-74
2022/05/22 13:03:14;;;;;;;1.83;0.75;;;20.40;99.90;;;;;;5034575;28;20038;-73
2022/05/22 13:05:42;;;;;;;3.47;0.65;;;20.40;99.90;;;;;;5034623;28;20140;-74
2022/05/22 13:08:23;;;;;;;2.42;0.50;;;20.40;99.90;;;;;;5034536;28;20060;-76
2022/05/22 13:10:52;;;;;;;;;;;20.30;99.90;;;;;;5034955;28;20128;-77
2022/05/22 13:13:31;;;;;;;4.10;0.90;;;20.30;99.90;;;;;;5034406;28;20019;-77
2022/05/22 13:16:08;;;;;;;2.25;0.40;;;20.20;99.90;;;;;;5034399;28;20124;-75
2022/05/22 13:18:48;;;;;;;1.83;0.70;;;20.20;99.90;;;;;;5001621;28;20091;-78